sensor_id;sensor_type;location;lat;lon;timestamp;P1;durP1;ratioP1;P2;durP2;ratioP2
22152;SDS011;11242;50.536;12.688;2022-12-18T00:01:03;23.98;;;6.78;;
22152;SDS011;11242;50.536;12.688;2022-12-18T00:03:34;17.90;;;6.22;;
22152;SDS011;11242;50.536;12.688;2022-12-18T00:06:01;9.30;;;4.30;;
22152;SDS011;11242;50.536;12.688;2022-12-18T00:08:27;30.23;;;9.52;;
22152;SDS011;11242;50.536;12.688;2022-12-18T00:10:53;26.08;;;7.75;;
22152;SDS011;11242;50.536;12.688;2022-12-18T00:13:19;7.90;;;4.15;;
22152;SDS011;11242;50.536;12.688;2022-12-18T00:15:45;8.68;;;4.63;;
22152;SDS011;11242;50.536;12.688;2022-12-18T00:18:10;14.50;;;4.40;;
22152;SDS011;11242;50.536;12.688;2022-12-18T00:20:37;13.73;;;5.30;;
22152;SDS011;11242;50.536;12.688;2022-12-18T00:23:04;10.68;;;4.18;;
22152;SDS011;11242;50.536;12.688;2022-12-18T00:25:34;10.00;;;3.50;;
22152;SDS011;11242;50.536;12.688;2022-12-18T00:28:00;3.60;;;2.10;;
22152;SDS011;11242;50.536;12.688;2022-12-18T00:30:26;5.22;;;2.30;;
22152;SDS011;11242;50.536;12.688;2022-12-18T00:32:52;4.55;;;2.70;;
22152;SDS011;11242;50.536;12.688;2022-12-18T00:35:18;7.70;;;3.90;;
22152;SDS011;11242;50.536;12.688;2022-12-18T00:37:46;3.72;;;2.67;;
22152;SDS011;11242;50.536;12.688;2022-12-18T00:40:11;4.70;;;2.80;;
22152;SDS011;11242;50.536;12.688;2022-12-18T00:42:37;6.20;;;2.50;;
22152;SDS011;11242;50.536;12.688;2022-12-18T00:45:21;5.10;;;3.17;;
22152;SDS011;11242;50.536;12.688;2022-12-18T00:47:48;52.13;;;25.48;;
22152;SDS011;11242;50.536;12.688;2022-12-18T00:50:14;33.08;;;10.32;;
22152;SDS011;11242;50.536;12.688;2022-12-18T00:52:40;20.58;;;8.35;;
22152;SDS011;11242;50.536;12.688;2022-12-18T00:55:06;28.42;;;9.60;;
22152;SDS011;11242;50.536;12.688;2022-12-18T00:57:32;23.15;;;9.60;;
22152;SDS011;11242;50.536;12.688;2022-12-18T00:59:57;21.23;;;8.40;;
22152;SDS011;11242;50.536;12.688;2022-12-18T01:02:23;23.92;;;8.85;;
22152;SDS011;11242;50.536;12.688;2022-12-18T01:04:49;53.33;;;13.90;;
22152;SDS011;11242;50.536;12.688;2022-12-18T01:07:18;28.77;;;8.15;;
22152;SDS011;11242;50.536;12.688;2022-12-18T01:09:44;22.00;;;6.75;;
22152;SDS011;11242;50.536;12.688;2022-12-18T01:12:09;10.43;;;4.80;;
22152;SDS011;11242;50.536;12.688;2022-12-18T01:14:36;16.77;;;5.32;;
22152;SDS011;11242;50.536;12.688;2022-12-18T01:17:03;9.40;;;4.25;;
22152;SDS011;11242;50.536;12.688;2022-12-18T01:19:34;22.33;;;5.28;;
22152;SDS011;11242;50.536;12.688;2022-12-18T01:22:00;11.80;;;5.50;;
22152;SDS011;11242;50.536;12.688;2022-12-18T01:24:25;8.40;;;4.40;;
22152;SDS011;11242;50.536;12.688;2022-12-18T01:26:51;9.45;;;4.35;;
22152;SDS011;11242;50.536;12.688;2022-12-18T01:29:17;13.93;;;4.00;;
22152;SDS011;11242;50.536;12.688;2022-12-18T01:31:42;6.72;;;2.90;;
22152;SDS011;11242;50.536;12.688;2022-12-18T01:34:08;5.97;;;2.90;;
22152;SDS011;11242;50.536;12.688;2022-12-18T01:36:35;7.40;;;3.22;;
22152;SDS011;11242;50.536;12.688;2022-12-18T01:39:03;50.42;;;9.93;;
22152;SDS011;11242;50.536;12.688;2022-12-18T01:41:34;20.88;;;6.63;;
22152;SDS011;11242;50.536;12.688;2022-12-18T01:49:54;5.50;;;2.60;;
22152;SDS011;11242;50.536;12.688;2022-12-18T01:52:22;4.15;;;2.38;;
22152;SDS011;11242;50.536;12.688;2022-12-18T01:54:50;3.88;;;2.40;;
22152;SDS011;11242;50.536;12.688;2022-12-18T01:57:18;6.55;;;3.30;;
22152;SDS011;11242;50.536;12.688;2022-12-18T01:59:45;6.63;;;3.22;;
22152;SDS011;11242;50.536;12.688;2022-12-18T02:02:15;11.77;;;4.30;;
22152;SDS011;11242;50.536;12.688;2022-12-18T02:04:42;14.95;;;4.78;;
22152;SDS011;11242;50.536;12.688;2022-12-18T02:07:11;5.38;;;2.40;;
22152;SDS011;11242;50.536;12.688;2022-12-18T02:09:50;5.70;;;3.05;;
22152;SDS011;11242;50.536;12.688;2022-12-18T02:12:27;15.07;;;5.45;;
22152;SDS011;11242;50.536;12.688;2022-12-18T02:15:08;43.75;;;11.02;;
22152;SDS011;11242;50.536;12.688;2022-12-18T02:17:56;31.80;;;10.50;;
22152;SDS011;11242;50.536;12.688;2022-12-18T02:20:29;15.00;;;4.80;;
22152;SDS011;11242;50.536;12.688;2022-12-18T02:28:22;8.85;;;3.13;;
22152;SDS011;11242;50.536;12.688;2022-12-18T02:30:52;15.38;;;5.40;;
22152;SDS011;11242;50.536;12.688;2022-12-18T02:33:21;15.23;;;5.82;;
22152;SDS011;11242;50.536;12.688;2022-12-18T02:35:49;14.75;;;5.30;;
22152;SDS011;11242;50.536;12.688;2022-12-18T02:38:18;20.30;;;6.53;;
22152;SDS011;11242;50.536;12.688;2022-12-18T02:40:47;94.70;;;19.63;;
22152;SDS011;11242;50.536;12.688;2022-12-18T02:43:16;38.25;;;10.98;;
22152;SDS011;11242;50.536;12.688;2022-12-18T02:45:56;34.80;;;11.05;;
22152;SDS011;11242;50.536;12.688;2022-12-18T02:48:24;35.65;;;11.80;;
22152;SDS011;11242;50.536;12.688;2022-12-18T02:51:07;40.47;;;11.27;;
22152;SDS011;11242;50.536;12.688;2022-12-18T02:53:43;30.93;;;9.57;;
22152;SDS011;11242;50.536;12.688;2022-12-18T02:56:26;21.80;;;7.30;;
22152;SDS011;11242;50.536;12.688;2022-12-18T02:59:19;13.48;;;3.90;;
22152;SDS011;11242;50.536;12.688;2022-12-18T03:04:28;10.20;;;4.32;;
22152;SDS011;11242;50.536;12.688;2022-12-18T03:07:04;8.63;;;4.00;;
22152;SDS011;11242;50.536;12.688;2022-12-18T03:09:35;8.77;;;3.65;;
22152;SDS011;11242;50.536;12.688;2022-12-18T03:12:06;8.80;;;4.03;;
22152;SDS011;11242;50.536;12.688;2022-12-18T03:14:50;8.10;;;3.80;;
22152;SDS011;11242;50.536;12.688;2022-12-18T03:17:44;7.35;;;4.20;;
22152;SDS011;11242;50.536;12.688;2022-12-18T03:20:18;11.68;;;4.20;;
22152;SDS011;11242;50.536;12.688;2022-12-18T03:22:46;9.10;;;3.35;;
22152;SDS011;11242;50.536;12.688;2022-12-18T03:25:16;6.85;;;3.00;;
22152;SDS011;11242;50.536;12.688;2022-12-18T03:27:49;9.32;;;3.97;;
22152;SDS011;11242;50.536;12.688;2022-12-18T03:30:19;9.45;;;4.10;;
22152;SDS011;11242;50.536;12.688;2022-12-18T03:32:51;12.40;;;3.58;;
22152;SDS011;11242;50.536;12.688;2022-12-18T03:35:29;14.20;;;5.03;;
22152;SDS011;11242;50.536;12.688;2022-12-18T03:38:00;23.67;;;7.90;;
22152;SDS011;11242;50.536;12.688;2022-12-18T03:40:29;31.08;;;9.20;;
22152;SDS011;11242;50.536;12.688;2022-12-18T03:43:20;24.60;;;7.55;;
22152;SDS011;11242;50.536;12.688;2022-12-18T03:46:17;18.48;;;5.70;;
22152;SDS011;11242;50.536;12.688;2022-12-18T03:48:52;14.93;;;5.15;;
22152;SDS011;11242;50.536;12.688;2022-12-18T03:51:28;14.90;;;5.22;;
22152;SDS011;11242;50.536;12.688;2022-12-18T03:54:09;10.02;;;3.80;;
22152;SDS011;11242;50.536;12.688;2022-12-18T03:56:43;10.10;;;3.47;;
22152;SDS011;11242;50.536;12.688;2022-12-18T03:59:13;6.05;;;3.30;;
22152;SDS011;11242;50.536;12.688;2022-12-18T04:01:42;5.97;;;3.53;;
22152;SDS011;11242;50.536;12.688;2022-12-18T04:06:40;10.43;;;4.03;;
22152;SDS011;11242;50.536;12.688;2022-12-18T04:09:09;7.55;;;4.43;;
22152;SDS011;11242;50.536;12.688;2022-12-18T04:11:42;34.35;;;8.45;;
22152;SDS011;11242;50.536;12.688;2022-12-18T04:14:10;22.02;;;7.45;;
22152;SDS011;11242;50.536;12.688;2022-12-18T04:16:35;23.48;;;7.10;;
22152;SDS011;11242;50.536;12.688;2022-12-18T04:19:05;25.75;;;6.82;;
22152;SDS011;11242;50.536;12.688;2022-12-18T04:21:37;19.27;;;6.72;;
22152;SDS011;11242;50.536;12.688;2022-12-18T04:24:03;19.65;;;5.82;;
22152;SDS011;11242;50.536;12.688;2022-12-18T04:26:29;13.90;;;4.90;;
22152;SDS011;11242;50.536;12.688;2022-12-18T04:29:07;16.60;;;7.88;;
22152;SDS011;11242;50.536;12.688;2022-12-18T04:31:33;25.25;;;9.85;;
22152;SDS011;11242;50.536;12.688;2022-12-18T04:33:59;27.30;;;9.98;;
22152;SDS011;11242;50.536;12.688;2022-12-18T04:36:28;14.25;;;6.50;;
22152;SDS011;11242;50.536;12.688;2022-12-18T04:38:54;11.02;;;5.60;;
22152;SDS011;11242;50.536;12.688;2022-12-18T04:41:20;21.38;;;6.93;;
22152;SDS011;11242;50.536;12.688;2022-12-18T04:43:47;15.45;;;6.43;;
22152;SDS011;11242;50.536;12.688;2022-12-18T04:46:13;13.35;;;5.82;;
22152;SDS011;11242;50.536;12.688;2022-12-18T04:48:39;14.27;;;6.35;;
22152;SDS011;11242;50.536;12.688;2022-12-18T04:51:05;11.18;;;5.93;;
22152;SDS011;11242;50.536;12.688;2022-12-18T04:53:31;15.90;;;5.30;;
22152;SDS011;11242;50.536;12.688;2022-12-18T04:56:04;14.88;;;6.47;;
22152;SDS011;11242;50.536;12.688;2022-12-18T04:58:50;17.13;;;6.75;;
22152;SDS011;11242;50.536;12.688;2022-12-18T05:01:16;30.27;;;9.02;;
22152;SDS011;11242;50.536;12.688;2022-12-18T05:03:42;34.97;;;9.95;;
22152;SDS011;11242;50.536;12.688;2022-12-18T05:06:11;24.70;;;6.40;;
22152;SDS011;11242;50.536;12.688;2022-12-18T05:08:37;8.65;;;5.07;;
22152;SDS011;11242;50.536;12.688;2022-12-18T05:11:03;17.75;;;6.18;;
22152;SDS011;11242;50.536;12.688;2022-12-18T05:13:31;15.77;;;5.18;;
22152;SDS011;11242;50.536;12.688;2022-12-18T05:15:57;10.35;;;3.78;;
22152;SDS011;11242;50.536;12.688;2022-12-18T05:18:23;7.78;;;3.70;;
22152;SDS011;11242;50.536;12.688;2022-12-18T05:20:50;7.68;;;4.15;;
22152;SDS011;11242;50.536;12.688;2022-12-18T05:23:16;9.05;;;4.32;;
22152;SDS011;11242;50.536;12.688;2022-12-18T05:25:42;22.50;;;6.28;;
22152;SDS011;11242;50.536;12.688;2022-12-18T05:28:11;10.10;;;4.20;;
22152;SDS011;11242;50.536;12.688;2022-12-18T05:30:36;7.82;;;3.05;;
22152;SDS011;11242;50.536;12.688;2022-12-18T05:33:02;6.45;;;2.80;;
22152;SDS011;11242;50.536;12.688;2022-12-18T05:35:27;5.63;;;3.50;;
22152;SDS011;11242;50.536;12.688;2022-12-18T05:37:54;18.63;;;10.98;;
22152;SDS011;11242;50.536;12.688;2022-12-18T05:40:20;24.35;;;10.70;;
22152;SDS011;11242;50.536;12.688;2022-12-18T05:42:45;25.75;;;11.63;;
22152;SDS011;11242;50.536;12.688;2022-12-18T05:45:11;24.73;;;10.27;;
22152;SDS011;11242;50.536;12.688;2022-12-18T05:47:36;22.13;;;10.35;;
22152;SDS011;11242;50.536;12.688;2022-12-18T05:50:02;45.10;;;24.38;;
22152;SDS011;11242;50.536;12.688;2022-12-18T05:52:28;48.35;;;20.85;;
22152;SDS011;11242;50.536;12.688;2022-12-18T05:54:53;20.70;;;11.55;;
22152;SDS011;11242;50.536;12.688;2022-12-18T05:57:19;29.33;;;11.05;;
22152;SDS011;11242;50.536;12.688;2022-12-18T05:59:45;35.72;;;8.35;;
22152;SDS011;11242;50.536;12.688;2022-12-18T06:02:10;16.98;;;6.93;;
22152;SDS011;11242;50.536;12.688;2022-12-18T06:04:36;21.60;;;5.90;;
22152;SDS011;11242;50.536;12.688;2022-12-18T06:07:01;12.55;;;5.38;;
22152;SDS011;11242;50.536;12.688;2022-12-18T06:09:28;17.88;;;4.75;;
22152;SDS011;11242;50.536;12.688;2022-12-18T06:11:54;9.93;;;3.45;;
22152;SDS011;11242;50.536;12.688;2022-12-18T06:14:22;8.40;;;3.80;;
22152;SDS011;11242;50.536;12.688;2022-12-18T06:16:50;15.98;;;5.00;;
22152;SDS011;11242;50.536;12.688;2022-12-18T06:19:16;63.53;;;10.75;;
22152;SDS011;11242;50.536;12.688;2022-12-18T06:21:42;11.57;;;3.90;;
22152;SDS011;11242;50.536;12.688;2022-12-18T06:24:08;14.38;;;4.03;;
22152;SDS011;11242;50.536;12.688;2022-12-18T06:26:33;7.30;;;4.00;;
22152;SDS011;11242;50.536;12.688;2022-12-18T06:29:01;58.92;;;26.30;;
22152;SDS011;11242;50.536;12.688;2022-12-18T06:31:27;8.27;;;4.40;;
22152;SDS011;11242;50.536;12.688;2022-12-18T06:33:53;12.68;;;5.97;;
22152;SDS011;11242;50.536;12.688;2022-12-18T06:36:18;30.05;;;8.52;;
22152;SDS011;11242;50.536;12.688;2022-12-18T06:38:48;34.65;;;15.13;;
22152;SDS011;11242;50.536;12.688;2022-12-18T06:41:15;26.50;;;11.40;;
22152;SDS011;11242;50.536;12.688;2022-12-18T06:43:42;19.40;;;8.25;;
22152;SDS011;11242;50.536;12.688;2022-12-18T06:46:08;15.38;;;7.10;;
22152;SDS011;11242;50.536;12.688;2022-12-18T06:48:34;37.25;;;12.05;;
22152;SDS011;11242;50.536;12.688;2022-12-18T06:50:59;23.00;;;8.13;;
22152;SDS011;11242;50.536;12.688;2022-12-18T06:53:25;24.35;;;10.73;;
22152;SDS011;11242;50.536;12.688;2022-12-18T06:55:51;66.28;;;13.90;;
22152;SDS011;11242;50.536;12.688;2022-12-18T06:58:16;30.45;;;8.75;;
22152;SDS011;11242;50.536;12.688;2022-12-18T07:00:42;37.58;;;11.85;;
22152;SDS011;11242;50.536;12.688;2022-12-18T07:03:08;30.27;;;11.95;;
22152;SDS011;11242;50.536;12.688;2022-12-18T07:05:34;21.77;;;7.15;;
22152;SDS011;11242;50.536;12.688;2022-12-18T07:08:05;14.82;;;5.70;;
22152;SDS011;11242;50.536;12.688;2022-12-18T07:10:31;18.90;;;7.35;;
22152;SDS011;11242;50.536;12.688;2022-12-18T07:12:57;20.50;;;6.60;;
22152;SDS011;11242;50.536;12.688;2022-12-18T07:15:22;18.83;;;7.30;;
22152;SDS011;11242;50.536;12.688;2022-12-18T07:17:48;15.05;;;5.10;;
22152;SDS011;11242;50.536;12.688;2022-12-18T07:20:13;21.92;;;6.55;;
22152;SDS011;11242;50.536;12.688;2022-12-18T07:22:39;14.68;;;7.13;;
22152;SDS011;11242;50.536;12.688;2022-12-18T07:25:05;41.90;;;18.52;;
22152;SDS011;11242;50.536;12.688;2022-12-18T07:27:31;103.10;;;43.20;;
22152;SDS011;11242;50.536;12.688;2022-12-18T07:29:57;219.75;;;90.28;;
22152;SDS011;11242;50.536;12.688;2022-12-18T07:32:22;143.57;;;60.60;;
22152;SDS011;11242;50.536;12.688;2022-12-18T07:34:48;212.65;;;85.80;;
22152;SDS011;11242;50.536;12.688;2022-12-18T07:37:13;125.00;;;53.30;;
22152;SDS011;11242;50.536;12.688;2022-12-18T07:39:39;119.05;;;49.13;;
22152;SDS011;11242;50.536;12.688;2022-12-18T07:42:04;74.65;;;34.92;;
22152;SDS011;11242;50.536;12.688;2022-12-18T07:44:49;66.68;;;26.23;;
22152;SDS011;11242;50.536;12.688;2022-12-18T07:47:14;31.92;;;10.30;;
22152;SDS011;11242;50.536;12.688;2022-12-18T07:49:40;37.42;;;12.55;;
22152;SDS011;11242;50.536;12.688;2022-12-18T07:52:05;28.05;;;11.52;;
22152;SDS011;11242;50.536;12.688;2022-12-18T07:54:31;96.28;;;50.92;;
22152;SDS011;11242;50.536;12.688;2022-12-18T07:56:56;34.53;;;18.25;;
22152;SDS011;11242;50.536;12.688;2022-12-18T07:59:22;71.05;;;35.03;;
22152;SDS011;11242;50.536;12.688;2022-12-18T08:01:48;271.13;;;114.35;;
22152;SDS011;11242;50.536;12.688;2022-12-18T08:04:13;268.40;;;115.13;;
22152;SDS011;11242;50.536;12.688;2022-12-18T08:06:39;226.60;;;96.28;;
22152;SDS011;11242;50.536;12.688;2022-12-18T08:09:04;236.32;;;99.13;;
22152;SDS011;11242;50.536;12.688;2022-12-18T08:11:30;154.65;;;67.35;;
22152;SDS011;11242;50.536;12.688;2022-12-18T08:13:56;247.30;;;117.93;;
22152;SDS011;11242;50.536;12.688;2022-12-18T08:16:22;219.70;;;104.30;;
22152;SDS011;11242;50.536;12.688;2022-12-18T08:18:48;315.63;;;150.02;;
22152;SDS011;11242;50.536;12.688;2022-12-18T08:21:18;240.02;;;107.40;;
22152;SDS011;11242;50.536;12.688;2022-12-18T08:23:47;254.95;;;118.10;;
22152;SDS011;11242;50.536;12.688;2022-12-18T08:26:13;249.57;;;121.78;;
22152;SDS011;11242;50.536;12.688;2022-12-18T08:28:39;285.33;;;142.35;;
22152;SDS011;11242;50.536;12.688;2022-12-18T08:31:06;217.93;;;109.25;;
22152;SDS011;11242;50.536;12.688;2022-12-18T08:33:32;247.30;;;119.97;;
22152;SDS011;11242;50.536;12.688;2022-12-18T08:35:58;200.57;;;103.18;;
22152;SDS011;11242;50.536;12.688;2022-12-18T08:38:25;180.35;;;97.30;;
22152;SDS011;11242;50.536;12.688;2022-12-18T08:41:00;178.18;;;96.85;;
22152;SDS011;11242;50.536;12.688;2022-12-18T08:43:33;233.05;;;109.20;;
22152;SDS011;11242;50.536;12.688;2022-12-18T08:46:19;175.18;;;93.18;;
22152;SDS011;11242;50.536;12.688;2022-12-18T08:48:45;199.00;;;103.18;;
22152;SDS011;11242;50.536;12.688;2022-12-18T08:51:12;191.35;;;99.85;;
22152;SDS011;11242;50.536;12.688;2022-12-18T08:53:38;177.48;;;92.15;;
22152;SDS011;11242;50.536;12.688;2022-12-18T08:56:04;186.30;;;96.55;;
22152;SDS011;11242;50.536;12.688;2022-12-18T08:58:30;184.35;;;95.65;;
22152;SDS011;11242;50.536;12.688;2022-12-18T09:01:02;177.45;;;95.07;;
22152;SDS011;11242;50.536;12.688;2022-12-18T09:03:29;180.95;;;96.53;;
22152;SDS011;11242;50.536;12.688;2022-12-18T09:05:54;236.85;;;132.95;;
22152;SDS011;11242;50.536;12.688;2022-12-18T09:08:20;240.98;;;132.98;;
22152;SDS011;11242;50.536;12.688;2022-12-18T09:10:48;234.13;;;120.95;;
22152;SDS011;11242;50.536;12.688;2022-12-18T09:13:14;247.80;;;128.27;;
22152;SDS011;11242;50.536;12.688;2022-12-18T09:15:41;312.83;;;166.48;;
22152;SDS011;11242;50.536;12.688;2022-12-18T09:18:08;266.67;;;139.82;;
22152;SDS011;11242;50.536;12.688;2022-12-18T09:20:35;204.95;;;108.70;;
22152;SDS011;11242;50.536;12.688;2022-12-18T09:23:01;311.20;;;165.57;;
22152;SDS011;11242;50.536;12.688;2022-12-18T09:25:28;315.55;;;179.70;;
22152;SDS011;11242;50.536;12.688;2022-12-18T09:27:58;324.55;;;176.63;;
22152;SDS011;11242;50.536;12.688;2022-12-18T09:30:25;321.50;;;176.90;;
22152;SDS011;11242;50.536;12.688;2022-12-18T09:32:54;369.95;;;204.48;;
22152;SDS011;11242;50.536;12.688;2022-12-18T09:35:20;335.88;;;180.40;;
22152;SDS011;11242;50.536;12.688;2022-12-18T09:37:46;372.60;;;199.45;;
22152;SDS011;11242;50.536;12.688;2022-12-18T09:40:13;360.63;;;193.02;;
22152;SDS011;11242;50.536;12.688;2022-12-18T09:42:40;329.08;;;179.80;;
22152;SDS011;11242;50.536;12.688;2022-12-18T09:45:11;298.77;;;155.65;;
22152;SDS011;11242;50.536;12.688;2022-12-18T09:47:39;271.25;;;148.73;;
22152;SDS011;11242;50.536;12.688;2022-12-18T09:52:57;163.38;;;88.18;;
22152;SDS011;11242;50.536;12.688;2022-12-18T09:55:41;206.30;;;115.87;;
22152;SDS011;11242;50.536;12.688;2022-12-18T10:00:41;166.20;;;91.15;;
22152;SDS011;11242;50.536;12.688;2022-12-18T10:03:10;92.63;;;54.53;;
22152;SDS011;11242;50.536;12.688;2022-12-18T10:05:57;141.45;;;76.80;;
22152;SDS011;11242;50.536;12.688;2022-12-18T10:08:46;53.80;;;29.42;;
22152;SDS011;11242;50.536;12.688;2022-12-18T10:11:32;30.00;;;17.25;;
22152;SDS011;11242;50.536;12.688;2022-12-18T10:14:15;19.13;;;9.93;;
22152;SDS011;11242;50.536;12.688;2022-12-18T10:19:39;18.35;;;9.82;;
22152;SDS011;11242;50.536;12.688;2022-12-18T10:25:06;15.77;;;7.50;;
22152;SDS011;11242;50.536;12.688;2022-12-18T10:27:42;12.88;;;7.13;;
22152;SDS011;11242;50.536;12.688;2022-12-18T10:30:12;7.75;;;4.47;;
22152;SDS011;11242;50.536;12.688;2022-12-18T10:32:42;6.63;;;4.43;;
22152;SDS011;11242;50.536;12.688;2022-12-18T10:35:11;5.80;;;3.83;;
22152;SDS011;11242;50.536;12.688;2022-12-18T10:37:58;4.50;;;3.13;;
22152;SDS011;11242;50.536;12.688;2022-12-18T10:40:24;3.85;;;2.63;;
22152;SDS011;11242;50.536;12.688;2022-12-18T10:43:03;3.40;;;2.60;;
22152;SDS011;11242;50.536;12.688;2022-12-18T10:45:29;5.82;;;3.60;;
22152;SDS011;11242;50.536;12.688;2022-12-18T10:47:55;7.50;;;4.13;;
22152;SDS011;11242;50.536;12.688;2022-12-18T10:52:54;3.85;;;2.63;;
22152;SDS011;11242;50.536;12.688;2022-12-18T10:55:26;7.03;;;4.43;;
22152;SDS011;11242;50.536;12.688;2022-12-18T10:57:57;4.68;;;2.75;;
22152;SDS011;11242;50.536;12.688;2022-12-18T11:00:53;3.85;;;2.55;;
22152;SDS011;11242;50.536;12.688;2022-12-18T11:03:39;3.10;;;1.77;;
22152;SDS011;11242;50.536;12.688;2022-12-18T11:06:15;4.63;;;3.25;;
22152;SDS011;11242;50.536;12.688;2022-12-18T11:08:44;6.07;;;3.55;;
22152;SDS011;11242;50.536;12.688;2022-12-18T11:11:23;5.80;;;3.75;;
22152;SDS011;11242;50.536;12.688;2022-12-18T11:16:43;8.05;;;4.20;;
22152;SDS011;11242;50.536;12.688;2022-12-18T11:27:24;10.82;;;5.10;;
22152;SDS011;11242;50.536;12.688;2022-12-18T11:29:50;5.68;;;3.00;;
22152;SDS011;11242;50.536;12.688;2022-12-18T11:35:03;4.55;;;2.95;;
22152;SDS011;11242;50.536;12.688;2022-12-18T11:37:40;4.55;;;2.97;;
22152;SDS011;11242;50.536;12.688;2022-12-18T11:40:13;10.98;;;5.10;;
22152;SDS011;11242;50.536;12.688;2022-12-18T11:49:17;9.17;;;4.87;;
22152;SDS011;11242;50.536;12.688;2022-12-18T11:51:40;10.63;;;5.30;;
22152;SDS011;11242;50.536;12.688;2022-12-18T11:54:12;14.23;;;8.02;;
22152;SDS011;11242;50.536;12.688;2022-12-18T11:56:43;16.05;;;9.38;;
22152;SDS011;11242;50.536;12.688;2022-12-18T12:05:02;12.15;;;7.90;;
22152;SDS011;11242;50.536;12.688;2022-12-18T12:07:45;11.73;;;8.32;;
22152;SDS011;11242;50.536;12.688;2022-12-18T12:15:54;11.95;;;7.28;;
22152;SDS011;11242;50.536;12.688;2022-12-18T12:18:56;15.77;;;8.80;;
22152;SDS011;11242;50.536;12.688;2022-12-18T12:21:39;8.82;;;5.82;;
22152;SDS011;11242;50.536;12.688;2022-12-18T12:27:06;10.40;;;7.05;;
22152;SDS011;11242;50.536;12.688;2022-12-18T12:32:28;10.67;;;6.30;;
22152;SDS011;11242;50.536;12.688;2022-12-18T12:40:48;8.57;;;4.17;;
22152;SDS011;11242;50.536;12.688;2022-12-18T12:46:10;9.48;;;5.45;;
22152;SDS011;11242;50.536;12.688;2022-12-18T12:49:01;6.93;;;4.80;;
22152;SDS011;11242;50.536;12.688;2022-12-18T12:51:34;11.13;;;5.78;;
22152;SDS011;11242;50.536;12.688;2022-12-18T12:54:03;14.88;;;9.30;;
22152;SDS011;11242;50.536;12.688;2022-12-18T13:02:16;5.28;;;3.63;;
22152;SDS011;11242;50.536;12.688;2022-12-18T13:30:59;16.15;;;9.25;;
22152;SDS011;11242;50.536;12.688;2022-12-18T13:39:10;10.10;;;6.25;;
22152;SDS011;11242;50.536;12.688;2022-12-18T13:41:47;11.65;;;7.25;;
22152;SDS011;11242;50.536;12.688;2022-12-18T13:44:25;7.22;;;4.60;;
22152;SDS011;11242;50.536;12.688;2022-12-18T13:49:40;6.00;;;3.65;;
22152;SDS011;11242;50.536;12.688;2022-12-18T13:52:22;7.32;;;4.03;;
22152;SDS011;11242;50.536;12.688;2022-12-18T13:54:53;8.48;;;5.25;;
22152;SDS011;11242;50.536;12.688;2022-12-18T13:59:58;19.73;;;10.55;;
22152;SDS011;11242;50.536;12.688;2022-12-18T14:02:39;6.53;;;3.83;;
22152;SDS011;11242;50.536;12.688;2022-12-18T14:05:26;16.35;;;8.55;;
22152;SDS011;11242;50.536;12.688;2022-12-18T14:08:00;45.47;;;22.98;;
22152;SDS011;11242;50.536;12.688;2022-12-18T14:10:29;7.65;;;4.28;;
22152;SDS011;11242;50.536;12.688;2022-12-18T14:13:04;51.35;;;25.10;;
22152;SDS011;11242;50.536;12.688;2022-12-18T14:15:39;20.20;;;12.07;;
22152;SDS011;11242;50.536;12.688;2022-12-18T14:20:54;15.73;;;9.95;;
22152;SDS011;11242;50.536;12.688;2022-12-18T14:23:39;8.70;;;5.53;;
22152;SDS011;11242;50.536;12.688;2022-12-18T14:28:55;10.55;;;7.28;;
22152;SDS011;11242;50.536;12.688;2022-12-18T14:31:22;8.80;;;5.10;;
22152;SDS011;11242;50.536;12.688;2022-12-18T14:33:52;9.23;;;5.72;;
22152;SDS011;11242;50.536;12.688;2022-12-18T14:36:20;9.13;;;5.25;;
22152;SDS011;11242;50.536;12.688;2022-12-18T14:38:51;5.97;;;3.80;;
22152;SDS011;11242;50.536;12.688;2022-12-18T14:41:19;7.53;;;4.28;;
22152;SDS011;11242;50.536;12.688;2022-12-18T14:43:47;8.45;;;5.35;;
22152;SDS011;11242;50.536;12.688;2022-12-18T14:46:32;20.33;;;7.22;;
22152;SDS011;11242;50.536;12.688;2022-12-18T14:51:41;7.80;;;4.20;;
22152;SDS011;11242;50.536;12.688;2022-12-18T14:54:17;6.38;;;4.00;;
22152;SDS011;11242;50.536;12.688;2022-12-18T14:56:45;7.53;;;5.00;;
22152;SDS011;11242;50.536;12.688;2022-12-18T14:59:14;6.82;;;4.47;;
22152;SDS011;11242;50.536;12.688;2022-12-18T15:01:47;6.90;;;4.70;;
22152;SDS011;11242;50.536;12.688;2022-12-18T15:04:37;8.05;;;3.55;;
22152;SDS011;11242;50.536;12.688;2022-12-18T15:07:07;4.78;;;3.33;;
22152;SDS011;11242;50.536;12.688;2022-12-18T15:09:42;7.82;;;5.28;;
22152;SDS011;11242;50.536;12.688;2022-12-18T15:12:44;6.72;;;3.33;;
22152;SDS011;11242;50.536;12.688;2022-12-18T15:20:44;5.00;;;2.85;;
22152;SDS011;11242;50.536;12.688;2022-12-18T15:23:23;6.78;;;3.85;;
22152;SDS011;11242;50.536;12.688;2022-12-18T15:25:55;9.00;;;4.32;;
22152;SDS011;11242;50.536;12.688;2022-12-18T15:33:40;8.18;;;4.40;;
22152;SDS011;11242;50.536;12.688;2022-12-18T15:36:24;9.70;;;5.10;;
22152;SDS011;11242;50.536;12.688;2022-12-18T15:39:01;6.57;;;3.70;;
22152;SDS011;11242;50.536;12.688;2022-12-18T15:41:28;6.70;;;4.20;;
22152;SDS011;11242;50.536;12.688;2022-12-18T15:44:00;6.03;;;3.40;;
22152;SDS011;11242;50.536;12.688;2022-12-18T15:46:25;6.65;;;3.45;;
22152;SDS011;11242;50.536;12.688;2022-12-18T15:48:52;7.15;;;3.70;;
22152;SDS011;11242;50.536;12.688;2022-12-18T15:51:21;6.63;;;3.72;;
22152;SDS011;11242;50.536;12.688;2022-12-18T15:53:56;5.80;;;3.50;;
22152;SDS011;11242;50.536;12.688;2022-12-18T15:56:25;10.63;;;3.85;;
22152;SDS011;11242;50.536;12.688;2022-12-18T15:59:14;5.32;;;3.72;;
22152;SDS011;11242;50.536;12.688;2022-12-18T16:01:41;7.55;;;4.03;;
22152;SDS011;11242;50.536;12.688;2022-12-18T16:04:10;5.38;;;3.17;;
22152;SDS011;11242;50.536;12.688;2022-12-18T16:06:38;4.60;;;3.38;;
22152;SDS011;11242;50.536;12.688;2022-12-18T16:09:04;4.93;;;3.28;;
22152;SDS011;11242;50.536;12.688;2022-12-18T16:11:30;6.80;;;4.30;;
22152;SDS011;11242;50.536;12.688;2022-12-18T16:14:18;7.53;;;4.93;;
22152;SDS011;11242;50.536;12.688;2022-12-18T16:16:46;11.73;;;5.80;;
22152;SDS011;11242;50.536;12.688;2022-12-18T16:19:14;6.93;;;4.15;;
22152;SDS011;11242;50.536;12.688;2022-12-18T16:21:40;9.13;;;5.30;;
22152;SDS011;11242;50.536;12.688;2022-12-18T16:24:05;5.25;;;3.40;;
22152;SDS011;11242;50.536;12.688;2022-12-18T16:26:46;5.97;;;3.85;;
22152;SDS011;11242;50.536;12.688;2022-12-18T16:29:13;14.23;;;6.80;;
22152;SDS011;11242;50.536;12.688;2022-12-18T16:31:39;11.13;;;6.45;;
22152;SDS011;11242;50.536;12.688;2022-12-18T16:34:18;6.70;;;3.58;;
22152;SDS011;11242;50.536;12.688;2022-12-18T16:36:51;6.25;;;3.47;;
22152;SDS011;11242;50.536;12.688;2022-12-18T16:39:18;5.40;;;3.80;;
22152;SDS011;11242;50.536;12.688;2022-12-18T16:41:44;5.30;;;3.70;;
22152;SDS011;11242;50.536;12.688;2022-12-18T16:44:11;8.45;;;4.65;;
22152;SDS011;11242;50.536;12.688;2022-12-18T16:46:37;5.43;;;3.58;;
22152;SDS011;11242;50.536;12.688;2022-12-18T16:49:03;5.60;;;3.38;;
22152;SDS011;11242;50.536;12.688;2022-12-18T16:51:32;5.70;;;4.07;;
22152;SDS011;11242;50.536;12.688;2022-12-18T16:53:57;7.22;;;4.68;;